createdAt,value
2018-03-04T00:08:28.912Z,35.97
2018-03-04T00:10:56.595Z,33.90
2018-03-04T00:13:24.167Z,40.40
2018-03-04T00:15:55.109Z,43.00
2018-03-04T00:18:22.705Z,37.60
2018-03-04T00:20:50.446Z,34.63
2018-03-04T00:26:25.549Z,38.22
2018-03-04T00:28:54.077Z,35.03
2018-03-04T00:39:40.484Z,39.38
2018-03-04T00:48:40.644Z,44.20
2018-03-04T00:51:13.985Z,38.30
2018-03-04T00:53:57.460Z,39.60
2018-03-04T00:56:56.384Z,38.85
2018-03-04T01:14:20.592Z,41.58
2018-03-04T01:16:49.154Z,41.55
2018-03-04T01:19:16.956Z,39.95
2018-03-04T01:21:44.824Z,41.55
2018-03-04T01:24:17.192Z,42.78
2018-03-04T01:26:44.940Z,35.78
2018-03-04T01:29:13.505Z,37.08
2018-03-04T01:31:41.204Z,38.00
2018-03-04T01:34:09.736Z,40.47
2018-03-04T01:36:39.325Z,45.03
2018-03-04T01:39:07.907Z,40.90
2018-03-04T01:41:35.699Z,40.75
2018-03-04T01:44:07.707Z,41.67
2018-03-04T01:46:35.879Z,41.25
2018-03-04T01:49:04.927Z,38.50
2018-03-04T01:51:44.527Z,42.13
2018-03-04T01:54:13.100Z,35.28
2018-03-04T01:56:43.831Z,40.60
2018-03-04T01:59:13.730Z,38.95
2018-03-04T02:01:44.404Z,39.53
2018-03-04T02:04:26.382Z,36.30
2018-03-04T02:06:54.969Z,41.95
2018-03-04T02:09:23.863Z,43.83
2018-03-04T02:12:00.365Z,44.25
2018-03-04T02:17:10.566Z,40.42
2018-03-04T02:20:02.148Z,43.70
2018-03-04T02:22:31.756Z,37.05
2018-03-04T02:25:06.457Z,44.97
2018-03-04T02:33:40.471Z,40.38
2018-03-04T02:38:51.262Z,47.00
2018-03-04T02:41:41.263Z,45.33
2018-03-04T02:47:36.079Z,48.87
2018-03-04T03:12:47.912Z,47.38
2018-03-04T04:03:20.280Z,43.87
2018-03-04T04:05:48.310Z,43.92
2018-03-04T04:14:02.813Z,56.75
2018-03-04T04:16:33.339Z,45.35
2018-03-04T04:19:02.703Z,50.75
2018-03-04T04:24:06.735Z,54.85
2018-03-04T04:26:36.258Z,40.70
2018-03-04T04:29:04.770Z,52.80
2018-03-04T04:31:33.741Z,49.35
2018-03-04T04:34:01.362Z,47.62
2018-03-04T04:36:30.860Z,43.92
2018-03-04T04:38:58.490Z,55.75
2018-03-04T04:41:26.222Z,52.17
2018-03-04T04:43:53.829Z,47.88
2018-03-04T04:46:21.465Z,51.10
2018-03-04T04:48:55.667Z,54.50
2018-03-04T04:51:47.819Z,50.53
2018-03-04T05:51:09.104Z,41.90
2018-03-04T05:53:36.680Z,52.75
2018-03-04T05:56:04.808Z,49.05
2018-03-04T05:58:32.333Z,56.55
2018-03-04T06:00:59.899Z,54.15
2018-03-04T06:03:27.409Z,72.53
2018-03-04T06:05:56.575Z,53.85
2018-03-04T06:08:24.985Z,52.97
2018-03-04T06:10:52.494Z,51.00
2018-03-04T06:13:20.016Z,55.17
2018-03-04T06:15:47.557Z,50.85
2018-03-04T06:18:15.259Z,58.83
2018-03-04T06:20:42.910Z,55.65
2018-03-04T06:23:11.038Z,50.58
2018-03-04T06:25:38.770Z,57.40
2018-03-04T06:28:06.233Z,57.85
2018-03-04T06:30:33.718Z,52.92
2018-03-04T06:33:02.071Z,58.97
2018-03-04T06:35:30.418Z,52.83
2018-03-04T06:37:57.901Z,60.12
2018-03-04T06:40:25.387Z,55.95
2018-03-04T06:42:53.660Z,49.35
2018-03-04T06:45:21.160Z,58.85
2018-03-04T06:47:48.635Z,60.75
2018-03-04T06:50:16.130Z,58.30
2018-03-04T06:52:44.367Z,52.17
2018-03-04T06:55:11.846Z,48.40
2018-03-04T06:57:39.311Z,61.08
2018-03-04T07:00:06.815Z,54.20
2018-03-04T07:02:34.311Z,64.97
2018-03-04T07:05:01.805Z,51.75
2018-03-04T07:07:29.291Z,49.58
2018-03-04T07:09:56.775Z,58.85
2018-03-04T07:12:24.285Z,58.55
2018-03-04T07:14:51.770Z,59.55
2018-03-04T07:17:19.280Z,66.85
2018-03-04T07:19:46.776Z,53.05
2018-03-04T07:22:14.245Z,53.35
2018-03-04T07:24:41.745Z,59.22
2018-03-04T07:27:09.205Z,49.80
2018-03-04T07:29:36.681Z,57.40
2018-03-04T07:32:04.174Z,50.38
2018-03-04T07:34:31.646Z,57.50
2018-03-04T07:36:59.106Z,50.30
2018-03-04T07:39:26.691Z,49.40
2018-03-04T07:41:54.958Z,55.55
2018-03-04T07:44:22.555Z,53.38
2018-03-04T07:46:50.832Z,54.67
2018-03-04T07:49:18.335Z,55.28
2018-03-04T07:51:45.807Z,66.00
2018-03-04T07:54:13.379Z,57.97
2018-03-04T07:56:40.852Z,57.22
2018-03-04T07:59:08.344Z,55.42
2018-03-04T08:01:35.839Z,50.55
2018-03-04T08:04:03.310Z,54.35
2018-03-04T08:06:30.838Z,58.97
2018-03-04T08:08:58.339Z,55.67
2018-03-04T08:11:25.836Z,58.15
2018-03-04T08:13:53.346Z,56.05
2018-03-04T08:16:20.844Z,54.20
2018-03-04T08:18:48.322Z,58.42
2018-03-04T08:21:15.824Z,58.78
2018-03-04T08:23:43.336Z,55.97
2018-03-04T08:26:22.616Z,60.10
2018-03-04T08:28:50.121Z,57.08
2018-03-04T08:31:17.606Z,64.22
2018-03-04T08:33:45.086Z,53.30
2018-03-04T08:36:12.692Z,56.72
2018-03-04T08:38:40.193Z,59.80
2018-03-04T08:41:07.673Z,64.87
2018-03-04T08:43:35.144Z,58.05
2018-03-04T08:46:02.655Z,61.42
2018-03-04T08:48:30.157Z,60.85
2018-03-04T08:50:57.690Z,63.67
2018-03-04T08:53:25.276Z,65.85
2018-03-04T08:55:52.733Z,70.50
2018-03-04T08:58:20.276Z,59.30
2018-03-04T09:00:48.569Z,62.65
2018-03-04T09:03:16.055Z,59.72
2018-03-04T09:05:43.617Z,62.22
2018-03-04T09:08:11.103Z,57.85
2018-03-04T09:10:38.571Z,64.75
2018-03-04T09:13:06.807Z,60.22
2018-03-04T09:15:34.292Z,60.03
2018-03-04T09:18:01.793Z,63.42
2018-03-04T09:20:30.084Z,61.53
2018-03-04T09:22:57.580Z,64.07
2018-03-04T09:25:25.463Z,61.78
2018-03-04T09:27:52.999Z,57.53
2018-03-04T09:30:20.475Z,66.95
2018-03-04T09:32:47.941Z,53.20
2018-03-04T09:35:16.175Z,58.38
2018-03-04T09:37:43.664Z,72.43
2018-03-04T09:40:11.208Z,67.18
2018-03-04T09:42:38.678Z,68.50
2018-03-04T09:45:07.124Z,66.57
2018-03-04T09:47:34.645Z,61.85
2018-03-04T09:50:02.136Z,64.57
2018-03-04T09:52:29.617Z,61.80
2018-03-04T09:54:57.094Z,60.33
2018-03-04T09:57:24.576Z,57.05
2018-03-04T09:59:52.034Z,59.30
2018-03-04T10:02:19.530Z,66.78
2018-03-04T10:04:47.023Z,64.70
2018-03-04T10:07:14.733Z,65.65
2018-03-04T10:09:42.218Z,73.18
2018-03-04T10:12:09.715Z,64.05
2018-03-04T10:14:37.205Z,71.00
2018-03-04T10:17:04.672Z,65.40
2018-03-04T10:19:32.172Z,66.25
2018-03-04T10:22:00.413Z,67.87
2018-03-04T10:24:27.930Z,68.78
2018-03-04T10:26:55.440Z,71.62
2018-03-04T10:29:22.949Z,66.60
2018-03-04T10:31:51.815Z,69.85
2018-03-04T10:34:19.557Z,63.78
2018-03-04T10:36:47.042Z,69.62
2018-03-04T10:39:15.278Z,64.07
2018-03-04T10:41:42.743Z,74.57
2018-03-04T10:44:10.754Z,64.82
2018-03-04T10:46:38.250Z,76.45
2018-03-04T10:49:05.748Z,70.57
2018-03-04T10:51:33.306Z,67.57
2018-03-04T10:54:00.770Z,67.28
2018-03-04T10:56:28.272Z,66.12
2018-03-04T10:58:55.726Z,70.60
2018-03-04T11:01:28.137Z,67.70
2018-03-04T11:03:56.436Z,69.85
2018-03-04T11:06:24.922Z,67.62
2018-03-04T11:08:52.464Z,69.70
2018-03-04T11:11:20.011Z,73.03
2018-03-04T11:13:47.571Z,76.70
2018-03-04T11:16:15.038Z,73.50
2018-03-04T11:18:42.494Z,71.32
2018-03-04T11:21:10.722Z,65.62
2018-03-04T11:23:38.181Z,68.57
2018-03-04T11:26:05.646Z,70.12
2018-03-04T11:28:33.149Z,63.38
2018-03-04T11:31:00.615Z,74.22
2018-03-04T11:33:28.080Z,71.28
2018-03-04T11:35:55.534Z,73.82
2018-03-04T11:38:22.997Z,67.28
2018-03-04T11:40:52.166Z,70.07
2018-03-04T11:43:20.404Z,71.50
2018-03-04T11:45:47.858Z,73.05
2018-03-04T11:48:15.304Z,80.28
2018-03-04T11:50:42.828Z,71.22
2018-03-04T11:53:10.277Z,77.07
2018-03-04T11:55:38.530Z,68.03
2018-03-04T11:58:06.019Z,70.90
2018-03-04T12:00:33.466Z,69.72
2018-03-04T12:03:01.734Z,73.53
2018-03-04T12:05:29.216Z,74.40
2018-03-04T12:07:56.675Z,73.55
2018-03-04T12:10:24.169Z,79.18
2018-03-04T12:12:52.675Z,71.05
2018-03-04T12:15:20.143Z,70.85
2018-03-04T12:17:47.660Z,68.70
2018-03-04T12:20:15.131Z,79.75
2018-03-04T12:22:42.627Z,79.10
2018-03-04T12:25:10.126Z,66.35
2018-03-04T12:27:37.606Z,72.22
2018-03-04T12:30:05.082Z,78.65
2018-03-04T12:32:32.574Z,65.80
2018-03-04T12:35:00.055Z,74.57
2018-03-04T12:37:27.622Z,77.00
2018-03-04T12:39:55.250Z,68.40
2018-03-04T12:42:23.019Z,67.03
2018-03-04T12:44:51.491Z,75.65
2018-03-04T12:47:19.012Z,77.40
2018-03-04T12:49:47.497Z,69.72
2018-03-04T12:52:14.975Z,68.35
2018-03-04T12:54:59.390Z,76.85
2018-03-04T12:57:26.933Z,74.47
2018-03-04T12:59:54.424Z,73.62
2018-03-04T13:02:21.911Z,75.43
2018-03-04T13:04:50.785Z,71.68
2018-03-04T13:07:19.388Z,75.43
2018-03-04T13:09:49.717Z,70.95
2018-03-04T13:12:17.418Z,76.28
2018-03-04T13:14:52.051Z,69.00
2018-03-04T13:17:36.052Z,79.70
2018-03-04T13:20:03.999Z,78.18
2018-03-04T13:22:32.353Z,73.37
2018-03-04T13:25:01.655Z,74.75
2018-03-04T13:27:29.221Z,80.18
2018-03-04T13:29:57.897Z,79.70
2018-03-04T13:35:22.610Z,75.57
2018-03-04T13:37:50.102Z,67.35
2018-03-04T13:40:17.692Z,73.93
2018-03-04T13:42:45.216Z,72.90
2018-03-04T13:45:13.555Z,71.93
2018-03-04T13:47:41.054Z,70.45
2018-03-04T13:50:08.619Z,76.18
2018-03-04T13:52:36.108Z,72.43
2018-03-04T13:55:03.707Z,67.20
2018-03-04T13:57:31.170Z,70.62
2018-03-04T13:59:58.647Z,79.47
2018-03-04T14:02:26.157Z,76.93
2018-03-04T14:04:53.701Z,83.55
2018-03-04T14:07:21.947Z,65.75
2018-03-04T14:09:50.379Z,74.00
2018-03-04T14:12:18.611Z,72.87
2018-03-04T14:14:46.933Z,74.22
2018-03-04T14:17:14.415Z,78.20
2018-03-04T14:19:41.927Z,76.87
2018-03-04T14:22:09.430Z,69.78
2018-03-04T14:24:36.974Z,68.28
2018-03-04T14:27:05.811Z,74.85
2018-03-04T14:29:33.431Z,72.43
2018-03-04T14:32:01.761Z,71.35
2018-03-04T14:34:29.243Z,75.30
2018-03-04T14:36:56.730Z,70.75
2018-03-04T14:39:24.235Z,72.32
2018-03-04T14:41:51.747Z,72.25
2018-03-04T14:44:21.207Z,76.60
2018-03-04T14:46:50.203Z,67.65
2018-03-04T14:49:18.545Z,72.80
2018-03-04T14:51:46.079Z,70.85
2018-03-04T14:54:13.828Z,73.50
2018-03-04T14:56:41.358Z,73.68
2018-03-04T14:59:09.026Z,72.97
2018-03-04T15:01:36.541Z,68.78
2018-03-04T15:04:04.083Z,68.70
2018-03-04T15:06:31.667Z,68.00
2018-03-04T15:08:59.310Z,77.00
2018-03-04T15:11:26.880Z,72.80
2018-03-04T15:13:54.469Z,66.50
2018-03-04T15:16:21.976Z,69.45
2018-03-04T15:18:53.710Z,66.72
2018-03-04T15:21:23.019Z,75.85
2018-03-04T15:23:50.757Z,73.00
2018-03-04T15:26:26.162Z,71.50
2018-03-04T15:28:54.006Z,66.60
2018-03-04T15:31:21.574Z,76.20
2018-03-04T15:33:49.129Z,83.07
2018-03-04T15:36:17.441Z,70.97
2018-03-04T15:38:44.989Z,69.43
2018-03-04T15:41:12.467Z,71.90
2018-03-04T15:43:40.079Z,67.62
2018-03-04T15:46:08.328Z,73.15
2018-03-04T15:48:35.848Z,70.78
2018-03-04T15:51:03.327Z,73.75
2018-03-04T15:53:30.794Z,76.50
2018-03-04T15:55:58.297Z,71.30
2018-03-04T15:58:25.793Z,74.07
2018-03-04T16:00:53.559Z,75.37
2018-03-04T16:03:22.337Z,72.80
2018-03-04T16:05:50.771Z,77.40
2018-03-04T16:08:18.387Z,73.22
2018-03-04T16:10:48.968Z,73.25
2018-03-04T16:13:19.892Z,73.62
2018-03-04T16:16:01.411Z,71.68
2018-03-04T16:18:29.695Z,74.47
2018-03-04T18:03:22.299Z,67.10
2018-03-04T18:05:57.491Z,77.37
2018-03-04T18:14:56.770Z,80.30
2018-03-04T18:17:35.034Z,79.07
2018-03-04T18:20:03.645Z,73.00
2018-03-04T18:22:32.104Z,68.35
2018-03-04T18:25:01.783Z,85.80
2018-03-04T18:27:30.598Z,76.68
2018-03-04T18:32:53.896Z,78.82
2018-03-04T18:35:24.164Z,75.87
2018-03-04T18:37:54.251Z,76.03
2018-03-04T18:44:56.396Z,76.20
2018-03-04T18:47:25.210Z,73.80
2018-03-04T18:49:52.839Z,78.20
2018-03-04T18:52:20.430Z,76.85
2018-03-04T18:54:48.936Z,76.37
2018-03-04T18:57:17.441Z,74.03
2018-03-04T18:59:45.142Z,79.15
2018-03-04T19:02:12.963Z,73.45
2018-03-04T19:04:40.695Z,73.20
2018-03-04T19:07:08.362Z,72.28
2018-03-04T19:09:37.224Z,83.15
2018-03-04T19:12:05.484Z,84.93
2018-03-04T19:14:33.156Z,81.28
2018-03-04T19:17:00.768Z,79.32
2018-03-04T19:19:28.385Z,69.87
2018-03-04T19:21:57.437Z,81.93
2018-03-04T19:36:25.123Z,75.22
2018-03-04T19:41:51.073Z,76.85
2018-03-04T19:44:21.015Z,86.15
2018-03-04T19:46:51.292Z,77.50
2018-03-04T19:49:22.588Z,77.87
2018-03-04T19:51:54.265Z,79.40
2018-03-04T19:54:22.912Z,80.93
2018-03-04T19:56:52.007Z,72.93
2018-03-04T19:59:22.513Z,80.60
2018-03-04T20:01:52.054Z,82.97
2018-03-04T20:04:20.541Z,89.28
2018-03-04T20:06:53.166Z,73.65
2018-03-04T20:09:22.088Z,76.62
2018-03-04T20:11:52.090Z,77.15
2018-03-04T20:14:20.703Z,76.20
2018-03-04T20:16:48.352Z,77.75
2018-03-04T20:19:16.034Z,74.70
2018-03-04T20:21:46.821Z,68.90
2018-03-04T20:24:15.109Z,80.95
2018-03-04T20:26:47.961Z,72.20
2018-03-04T20:29:15.854Z,72.57
2018-03-04T20:31:45.596Z,72.40
2018-03-04T20:34:29.719Z,81.28
2018-03-04T20:37:09.928Z,80.57
2018-03-04T20:39:40.131Z,68.90
2018-03-04T20:44:51.788Z,79.25
2018-03-04T20:47:20.716Z,72.40
2018-03-04T20:49:49.013Z,70.03
2018-03-04T20:57:59.681Z,69.95
2018-03-04T21:00:29.939Z,71.43
2018-03-04T21:02:57.453Z,72.75
2018-03-04T21:05:25.045Z,65.45
2018-03-04T21:07:53.016Z,79.87
2018-03-04T21:10:21.377Z,69.57
2018-03-04T21:12:48.999Z,67.12
2018-03-04T21:15:16.521Z,76.47
2018-03-04T21:17:44.234Z,74.37
2018-03-04T21:20:12.612Z,75.55
2018-03-04T21:22:40.315Z,73.25
2018-03-04T21:25:07.871Z,76.95
2018-03-04T21:27:35.435Z,80.22
2018-03-04T21:30:03.716Z,73.15
2018-03-04T21:32:31.211Z,63.75
2018-03-04T21:34:59.061Z,69.93
2018-03-04T21:37:26.560Z,66.43
2018-03-04T21:39:54.182Z,73.62
2018-03-04T21:42:21.711Z,66.72
2018-03-04T21:44:49.224Z,80.03
2018-03-04T21:47:16.826Z,74.03
2018-03-04T21:49:44.357Z,72.10
2018-03-04T21:52:11.965Z,77.25
2018-03-04T21:54:39.504Z,66.72
2018-03-04T21:57:07.144Z,72.20
2018-03-04T21:59:34.810Z,67.87
2018-03-04T22:02:02.338Z,65.25
2018-03-04T22:04:29.876Z,68.10
2018-03-04T22:06:57.477Z,71.60
2018-03-04T22:09:25.026Z,81.60
2018-03-04T22:11:52.660Z,71.65
2018-03-04T22:14:20.142Z,63.40
2018-03-04T22:16:47.658Z,68.53
2018-03-04T22:19:15.142Z,71.65
2018-03-04T22:21:42.740Z,76.30
2018-03-04T22:24:10.278Z,77.32
2018-03-04T22:26:37.861Z,75.28
2018-03-04T22:29:05.401Z,68.95
2018-03-04T22:31:33.571Z,71.90
2018-03-04T22:34:01.116Z,71.22
2018-03-04T22:36:28.686Z,71.22
2018-03-04T22:38:56.281Z,69.80
2018-03-04T22:41:24.571Z,69.95
2018-03-04T22:43:52.144Z,77.18
2018-03-04T22:46:19.677Z,73.53
2018-03-04T22:48:47.199Z,80.60
2018-03-04T22:51:14.839Z,63.42
2018-03-04T22:53:42.471Z,72.70
2018-03-04T22:56:10.027Z,68.07
2018-03-04T22:58:43.222Z,67.15
2018-03-04T23:01:10.803Z,71.40
2018-03-04T23:03:38.362Z,70.45
2018-03-04T23:06:06.049Z,74.22
2018-03-04T23:08:33.593Z,75.35
2018-03-04T23:11:01.724Z,67.50
2018-03-04T23:13:29.284Z,76.45
2018-03-04T23:15:56.826Z,67.25
2018-03-04T23:18:24.430Z,77.68
2018-03-04T23:20:51.975Z,70.28
2018-03-04T23:23:19.548Z,75.60
2018-03-04T23:25:47.203Z,70.15
2018-03-04T23:28:15.004Z,76.03
2018-03-04T23:30:42.603Z,76.72
2018-03-04T23:33:10.159Z,74.55
2018-03-04T23:35:37.781Z,76.12
2018-03-04T23:38:05.373Z,72.43
2018-03-04T23:40:33.152Z,71.00
2018-03-04T23:43:00.746Z,72.65
2018-03-04T23:45:28.280Z,62.53
2018-03-04T23:47:55.982Z,78.93
2018-03-04T23:50:23.656Z,71.43
2018-03-04T23:52:51.168Z,69.47
2018-03-04T23:55:18.830Z,68.50
2018-03-04T23:57:46.756Z,65.53
